createdAt,value
2018-12-31T00:01:13.411Z,99.90
2018-12-31T00:03:45.316Z,99.90
2018-12-31T00:06:14.922Z,99.90
2018-12-31T00:08:44.636Z,99.90
2018-12-31T00:11:14.365Z,99.90
2018-12-31T00:13:44.204Z,99.90
2018-12-31T00:16:13.898Z,99.90
2018-12-31T00:18:43.749Z,99.90
2018-12-31T00:21:13.459Z,99.90
2018-12-31T00:23:43.089Z,99.90
2018-12-31T00:26:12.957Z,99.90
2018-12-31T00:28:42.733Z,99.90
2018-12-31T00:31:12.554Z,99.90
2018-12-31T00:33:42.269Z,99.90
2018-12-31T00:36:12.029Z,99.90
2018-12-31T00:38:41.659Z,99.90
2018-12-31T00:41:11.369Z,99.90
2018-12-31T00:43:41.100Z,99.90
2018-12-31T00:46:10.848Z,99.90
2018-12-31T00:48:40.648Z,99.90
2018-12-31T00:51:10.261Z,99.90
2018-12-31T00:53:40.000Z,99.90
2018-12-31T00:56:09.804Z,99.90
2018-12-31T00:58:39.538Z,99.90
2018-12-31T01:01:09.217Z,99.90
2018-12-31T01:03:38.897Z,99.90
2018-12-31T01:06:08.642Z,99.90
2018-12-31T01:08:38.317Z,99.90
2018-12-31T01:11:08.013Z,99.90
2018-12-31T01:13:37.646Z,99.90
2018-12-31T01:16:07.461Z,99.90
2018-12-31T01:18:37.110Z,99.90
2018-12-31T01:21:06.800Z,99.90
2018-12-31T01:23:36.598Z,99.90
2018-12-31T01:26:06.381Z,99.90
2018-12-31T01:28:35.985Z,99.90
2018-12-31T01:31:05.698Z,99.90
2018-12-31T01:33:35.497Z,99.90
2018-12-31T01:36:06.114Z,99.90
2018-12-31T01:38:35.893Z,99.90
2018-12-31T01:41:05.545Z,99.90
2018-12-31T01:43:35.225Z,99.90
2018-12-31T01:46:04.866Z,99.90
2018-12-31T01:48:34.502Z,99.90
2018-12-31T01:51:11.121Z,99.90
2018-12-31T01:53:35.598Z,99.90
2018-12-31T01:56:05.256Z,99.90
2018-12-31T01:58:34.965Z,99.90
2018-12-31T02:01:04.764Z,99.90
2018-12-31T02:03:34.474Z,99.90
2018-12-31T02:06:04.222Z,99.90
2018-12-31T02:08:33.877Z,99.90
2018-12-31T02:11:03.594Z,99.90
2018-12-31T02:13:33.332Z,99.90
2018-12-31T02:16:03.086Z,99.90
2018-12-31T02:18:32.875Z,99.90
2018-12-31T02:21:02.669Z,99.90
2018-12-31T02:23:32.384Z,99.90
2018-12-31T02:26:02.165Z,99.90
2018-12-31T02:28:31.861Z,99.90
2018-12-31T02:31:01.805Z,99.90
2018-12-31T02:33:31.587Z,99.90
2018-12-31T02:36:01.243Z,99.90
2018-12-31T02:38:30.897Z,99.90
2018-12-31T02:41:00.553Z,99.90
2018-12-31T02:43:30.274Z,99.90
2018-12-31T02:46:00.041Z,99.90
2018-12-31T02:48:29.726Z,99.90
2018-12-31T02:50:59.457Z,99.90
2018-12-31T02:53:29.263Z,99.90
2018-12-31T02:55:59.055Z,99.90
2018-12-31T02:58:28.764Z,99.90
2018-12-31T03:00:58.391Z,99.90
2018-12-31T03:03:28.209Z,99.90
2018-12-31T03:05:57.964Z,99.90
2018-12-31T03:08:28.645Z,99.90
2018-12-31T03:10:58.347Z,99.90
2018-12-31T03:13:28.105Z,99.90
2018-12-31T03:15:57.846Z,99.90
2018-12-31T03:18:27.513Z,99.90
2018-12-31T03:20:57.229Z,99.90
2018-12-31T03:23:26.965Z,99.90
2018-12-31T03:25:56.595Z,99.90
2018-12-31T03:28:26.248Z,99.90
2018-12-31T03:30:55.971Z,99.90
2018-12-31T03:33:25.681Z,99.90
2018-12-31T03:35:55.362Z,99.90
2018-12-31T03:38:25.164Z,99.90
2018-12-31T03:40:54.870Z,99.90
2018-12-31T03:43:24.558Z,99.90
2018-12-31T03:45:54.299Z,99.90
2018-12-31T03:48:24.054Z,99.90
2018-12-31T03:50:53.696Z,99.90
2018-12-31T03:53:23.418Z,99.90
2018-12-31T03:55:53.139Z,99.90
2018-12-31T03:58:22.853Z,99.90
2018-12-31T04:00:52.562Z,99.90
2018-12-31T04:03:22.209Z,99.90
2018-12-31T04:05:51.944Z,99.90
2018-12-31T04:08:21.705Z,99.90
2018-12-31T04:10:51.497Z,99.90
2018-12-31T04:13:21.293Z,99.90
2018-12-31T04:15:51.018Z,99.90
2018-12-31T04:18:20.748Z,99.90
2018-12-31T04:20:50.450Z,99.90
2018-12-31T04:23:22.591Z,99.90
2018-12-31T04:25:52.427Z,99.90
2018-12-31T04:28:22.201Z,99.90
2018-12-31T04:30:51.893Z,99.90
2018-12-31T04:33:21.511Z,99.90
2018-12-31T04:35:51.207Z,99.90
2018-12-31T04:38:20.981Z,99.90
2018-12-31T04:40:51.775Z,99.90
2018-12-31T04:43:21.581Z,99.90
2018-12-31T04:45:51.327Z,99.90
2018-12-31T04:48:21.103Z,99.90
2018-12-31T04:50:50.830Z,99.90
2018-12-31T04:53:20.522Z,99.90
2018-12-31T04:55:50.249Z,99.90
2018-12-31T04:58:23.311Z,99.90
2018-12-31T05:00:51.348Z,99.90
2018-12-31T05:03:21.029Z,99.90
2018-12-31T05:05:50.666Z,99.90
2018-12-31T05:08:20.372Z,99.90
2018-12-31T05:10:50.152Z,99.90
2018-12-31T05:13:19.823Z,99.90
2018-12-31T05:15:49.573Z,99.90
2018-12-31T05:18:19.341Z,99.90
2018-12-31T05:20:49.061Z,99.90
2018-12-31T05:23:18.814Z,99.90
2018-12-31T05:25:48.624Z,99.90
2018-12-31T05:28:18.394Z,99.90
2018-12-31T05:30:48.133Z,99.90
2018-12-31T05:33:17.863Z,99.90
2018-12-31T05:35:47.580Z,99.90
2018-12-31T05:38:17.669Z,99.90
2018-12-31T05:40:47.454Z,99.90
2018-12-31T05:43:17.166Z,99.90
2018-12-31T05:45:46.802Z,99.90
2018-12-31T05:48:16.583Z,99.90
2018-12-31T05:50:46.385Z,99.90
2018-12-31T05:53:16.284Z,99.90
2018-12-31T05:55:46.062Z,99.90
2018-12-31T05:58:15.851Z,99.90
2018-12-31T06:00:45.633Z,99.90
2018-12-31T06:03:15.242Z,99.90
2018-12-31T06:05:45.006Z,99.90
2018-12-31T06:08:14.710Z,99.90
2018-12-31T06:10:44.425Z,99.90
2018-12-31T06:13:14.202Z,99.90
2018-12-31T06:15:45.540Z,99.90
2018-12-31T06:18:15.272Z,99.90
2018-12-31T06:20:44.958Z,99.90
2018-12-31T06:23:14.621Z,99.90
2018-12-31T06:25:44.343Z,99.90
2018-12-31T06:28:14.025Z,99.90
2018-12-31T06:30:43.777Z,99.90
2018-12-31T06:33:15.177Z,99.90
2018-12-31T06:35:44.848Z,99.90
2018-12-31T06:38:14.613Z,99.90
2018-12-31T06:40:44.332Z,99.90
2018-12-31T06:43:14.032Z,99.90
2018-12-31T06:45:43.666Z,99.90
2018-12-31T06:48:13.409Z,99.90
2018-12-31T06:50:43.053Z,99.90
2018-12-31T06:53:12.753Z,99.90
2018-12-31T06:55:42.485Z,99.90
2018-12-31T06:58:12.714Z,99.90
2018-12-31T07:00:42.485Z,99.90
2018-12-31T07:03:12.193Z,99.90
2018-12-31T07:05:41.882Z,99.90
2018-12-31T07:08:11.685Z,99.90
2018-12-31T07:10:41.422Z,99.90
2018-12-31T07:13:11.207Z,99.90
2018-12-31T07:15:41.061Z,99.90
2018-12-31T07:18:10.781Z,99.90
2018-12-31T07:20:40.509Z,99.90
2018-12-31T07:23:10.213Z,99.90
2018-12-31T07:25:39.934Z,99.90
2018-12-31T07:28:09.684Z,99.90
2018-12-31T07:30:39.479Z,99.90
2018-12-31T07:33:09.225Z,99.90
2018-12-31T07:35:38.942Z,99.90
2018-12-31T07:38:08.660Z,99.90
2018-12-31T07:40:38.409Z,99.90
2018-12-31T07:43:09.639Z,99.90
2018-12-31T07:45:39.652Z,99.90
2018-12-31T07:48:09.353Z,99.90
2018-12-31T07:50:39.059Z,99.90
2018-12-31T07:53:08.700Z,99.90
2018-12-31T07:55:38.313Z,99.90
2018-12-31T07:58:08.035Z,99.90
2018-12-31T08:00:37.789Z,99.90
2018-12-31T08:03:07.421Z,99.90
2018-12-31T08:05:37.205Z,99.90
2018-12-31T08:08:06.961Z,99.90
2018-12-31T08:10:36.612Z,99.90
2018-12-31T08:13:06.330Z,99.90
2018-12-31T08:15:36.025Z,99.90
2018-12-31T08:18:05.756Z,99.90
2018-12-31T08:20:35.499Z,99.90
2018-12-31T08:23:05.242Z,99.90
2018-12-31T08:25:35.249Z,99.90
2018-12-31T08:28:05.132Z,99.90
2018-12-31T08:30:34.923Z,99.90
2018-12-31T08:33:04.563Z,99.90
2018-12-31T08:35:34.301Z,99.90
2018-12-31T08:38:04.053Z,99.90
2018-12-31T08:40:33.777Z,99.90
2018-12-31T08:43:03.508Z,99.90
2018-12-31T08:45:33.201Z,99.90
2018-12-31T08:48:02.944Z,99.90
2018-12-31T08:50:32.636Z,99.90
2018-12-31T08:53:02.369Z,99.90
2018-12-31T08:55:32.071Z,99.90
2018-12-31T08:58:01.902Z,99.90
2018-12-31T09:00:31.625Z,99.90
2018-12-31T09:03:01.398Z,99.90
2018-12-31T09:05:31.102Z,99.90
2018-12-31T09:08:00.781Z,99.90
2018-12-31T09:10:30.406Z,99.90
2018-12-31T09:13:00.133Z,99.90
2018-12-31T09:15:29.886Z,99.90
2018-12-31T09:17:59.629Z,99.90
2018-12-31T09:20:29.329Z,99.90
2018-12-31T09:22:59.091Z,99.90
2018-12-31T09:25:28.794Z,99.90
2018-12-31T09:27:58.457Z,99.90
2018-12-31T09:30:28.247Z,99.90
2018-12-31T09:32:58.025Z,99.90
2018-12-31T09:35:27.801Z,99.90
2018-12-31T09:37:57.593Z,99.90
2018-12-31T09:40:27.276Z,99.90
2018-12-31T09:42:57.011Z,99.90
2018-12-31T09:45:26.746Z,99.90
2018-12-31T09:47:56.486Z,99.90
2018-12-31T09:50:26.245Z,99.90
2018-12-31T09:52:56.012Z,99.90
2018-12-31T09:55:25.778Z,99.90
2018-12-31T09:57:55.501Z,99.90
2018-12-31T10:00:25.248Z,99.90
2018-12-31T10:02:54.876Z,99.90
2018-12-31T10:05:24.577Z,99.90
2018-12-31T10:07:54.320Z,99.90
2018-12-31T10:10:24.001Z,99.90
2018-12-31T10:12:53.697Z,99.90
2018-12-31T10:15:23.513Z,99.90
2018-12-31T10:17:53.285Z,99.90
2018-12-31T10:20:23.044Z,99.90
2018-12-31T10:22:52.816Z,99.90
2018-12-31T10:25:22.451Z,99.90
2018-12-31T10:27:52.238Z,99.90
2018-12-31T10:30:21.970Z,99.90
2018-12-31T10:32:53.073Z,99.90
2018-12-31T10:35:23.122Z,99.90
2018-12-31T10:37:52.869Z,99.90
2018-12-31T10:40:22.605Z,99.90
2018-12-31T10:42:52.345Z,99.90
2018-12-31T10:45:22.108Z,99.90
2018-12-31T10:47:51.823Z,99.90
2018-12-31T10:50:21.442Z,99.90
2018-12-31T10:52:51.149Z,99.90
2018-12-31T10:55:20.759Z,99.90
2018-12-31T10:57:50.508Z,99.90
2018-12-31T11:00:20.629Z,99.90
2018-12-31T11:02:50.441Z,99.90
2018-12-31T11:05:20.141Z,98.60
2018-12-31T11:07:49.882Z,92.10
2018-12-31T11:10:19.660Z,98.30
2018-12-31T11:12:49.707Z,93.60
2018-12-31T11:15:19.477Z,84.20
2018-12-31T11:17:49.244Z,84.10
2018-12-31T11:20:19.058Z,72.60
2018-12-31T11:22:48.902Z,78.60
2018-12-31T11:25:18.612Z,89.50
2018-12-31T11:27:48.344Z,78.50
2018-12-31T11:30:18.094Z,83.10
2018-12-31T11:32:47.953Z,75.60
2018-12-31T11:35:17.689Z,81.30
2018-12-31T11:37:47.491Z,66.40
2018-12-31T11:40:17.218Z,66.00
2018-12-31T11:42:46.949Z,73.40
2018-12-31T11:45:16.686Z,76.70
2018-12-31T11:47:46.539Z,73.50
2018-12-31T11:50:16.354Z,91.10
2018-12-31T11:52:46.138Z,71.90
2018-12-31T11:55:15.941Z,63.70
2018-12-31T11:57:45.713Z,67.70
2018-12-31T12:00:15.508Z,61.40
2018-12-31T12:02:45.374Z,60.20
2018-12-31T12:05:15.133Z,55.90
2018-12-31T12:07:44.905Z,69.90
2018-12-31T12:10:14.666Z,58.80
2018-12-31T12:12:44.426Z,55.70
2018-12-31T12:15:14.108Z,64.50
2018-12-31T12:17:43.788Z,58.90
2018-12-31T12:20:14.262Z,67.90
2018-12-31T12:22:44.037Z,60.50
2018-12-31T12:25:13.744Z,55.50
2018-12-31T12:27:43.540Z,57.10
2018-12-31T12:30:13.231Z,61.10
2018-12-31T12:32:43.189Z,60.10
2018-12-31T12:35:12.917Z,63.30
2018-12-31T12:37:48.478Z,64.40
2018-12-31T12:40:14.105Z,55.10
2018-12-31T12:42:43.818Z,67.00
2018-12-31T12:45:13.537Z,63.10
2018-12-31T12:47:43.225Z,56.00
2018-12-31T12:50:12.881Z,55.50
2018-12-31T12:52:42.732Z,57.20
2018-12-31T12:55:12.933Z,64.60
2018-12-31T12:57:42.717Z,57.20
2018-12-31T13:00:12.529Z,61.40
2018-12-31T13:02:42.259Z,82.40
2018-12-31T13:05:12.025Z,69.70
2018-12-31T13:07:41.930Z,59.90
2018-12-31T13:10:11.692Z,59.90
2018-12-31T13:12:41.440Z,63.60
2018-12-31T13:15:11.177Z,63.80
2018-12-31T13:17:40.885Z,62.60
2018-12-31T13:20:10.706Z,55.70
2018-12-31T13:22:40.496Z,56.90
2018-12-31T13:25:10.241Z,55.00
2018-12-31T13:27:39.965Z,70.70
2018-12-31T13:30:10.544Z,69.00
2018-12-31T13:32:40.489Z,63.80
2018-12-31T13:35:10.213Z,69.20
2018-12-31T13:37:40.070Z,59.40
2018-12-31T13:40:09.797Z,72.00
2018-12-31T13:42:39.909Z,66.10
2018-12-31T13:45:09.695Z,82.60
2018-12-31T13:47:39.458Z,91.30
2018-12-31T13:50:09.281Z,99.10
2018-12-31T13:52:38.950Z,94.90
2018-12-31T13:55:08.766Z,99.90
2018-12-31T13:57:38.468Z,99.40
2018-12-31T14:00:11.511Z,99.90
2018-12-31T14:02:41.228Z,99.90
2018-12-31T14:05:11.629Z,99.90
2018-12-31T14:07:41.369Z,99.90
2018-12-31T14:10:11.074Z,99.90
2018-12-31T14:12:40.729Z,99.90
2018-12-31T14:15:10.425Z,99.90
2018-12-31T14:17:40.041Z,99.90
2018-12-31T14:20:09.707Z,99.90
2018-12-31T14:22:39.421Z,99.90
2018-12-31T14:25:09.138Z,99.90
2018-12-31T14:27:38.802Z,99.90
2018-12-31T14:30:10.245Z,99.90
2018-12-31T14:32:40.002Z,99.90
2018-12-31T14:35:09.691Z,99.90
2018-12-31T14:37:39.502Z,99.90
2018-12-31T14:40:10.245Z,99.90
2018-12-31T14:42:39.948Z,99.90
2018-12-31T14:45:09.597Z,99.90
2018-12-31T14:47:39.320Z,99.90
2018-12-31T14:50:09.241Z,99.90
2018-12-31T14:52:39.112Z,99.90
2018-12-31T14:55:10.077Z,99.90
2018-12-31T14:57:39.761Z,99.90
2018-12-31T15:00:11.814Z,99.90
2018-12-31T15:02:41.903Z,99.90
2018-12-31T15:05:11.702Z,99.90
2018-12-31T15:07:41.490Z,99.90
2018-12-31T15:10:11.225Z,99.90
2018-12-31T15:12:40.966Z,99.90
2018-12-31T15:15:10.623Z,99.90
2018-12-31T15:17:40.308Z,99.90
2018-12-31T15:20:10.696Z,99.90
2018-12-31T15:22:40.494Z,99.90
2018-12-31T15:25:10.190Z,99.90
2018-12-31T15:27:39.877Z,99.90
2018-12-31T15:30:09.893Z,99.90
2018-12-31T15:32:39.621Z,99.90
2018-12-31T15:35:09.330Z,99.90
2018-12-31T15:37:39.161Z,99.90
2018-12-31T15:40:09.614Z,99.90
2018-12-31T15:42:39.301Z,99.90
2018-12-31T15:45:09.558Z,99.90
2018-12-31T15:47:39.309Z,99.90
2018-12-31T15:50:09.496Z,99.90
2018-12-31T15:52:39.218Z,99.90
2018-12-31T15:55:08.958Z,99.90
2018-12-31T15:57:38.689Z,99.90
2018-12-31T16:00:10.424Z,99.90
2018-12-31T16:02:40.125Z,99.90
2018-12-31T16:05:10.102Z,99.90
2018-12-31T16:07:45.760Z,99.90
2018-12-31T16:10:11.425Z,99.90
2018-12-31T16:12:42.770Z,99.90
2018-12-31T16:15:12.460Z,99.90
2018-12-31T16:17:42.246Z,99.90
2018-12-31T16:20:11.937Z,99.90
2018-12-31T16:22:41.607Z,99.90
2018-12-31T16:25:11.769Z,99.90
2018-12-31T16:27:41.542Z,99.90
2018-12-31T16:30:11.245Z,99.90
2018-12-31T16:32:40.929Z,99.90
2018-12-31T16:35:10.638Z,99.90
2018-12-31T16:37:40.289Z,99.90
2018-12-31T16:40:10.022Z,99.90
2018-12-31T16:42:39.749Z,99.90
2018-12-31T16:45:09.810Z,99.90
2018-12-31T16:47:39.582Z,99.90
2018-12-31T16:50:09.409Z,99.90
2018-12-31T16:52:39.066Z,99.90
2018-12-31T16:55:08.789Z,99.90
2018-12-31T16:57:38.533Z,99.90
2018-12-31T17:00:08.549Z,99.90
2018-12-31T17:02:38.315Z,99.90
2018-12-31T17:05:08.290Z,99.90
2018-12-31T17:07:38.067Z,99.90
2018-12-31T17:10:09.833Z,99.90
2018-12-31T17:12:40.241Z,99.90
2018-12-31T17:15:09.911Z,99.90
2018-12-31T17:17:39.733Z,99.90
2018-12-31T17:20:09.433Z,99.90
2018-12-31T17:22:39.225Z,99.90
2018-12-31T17:25:09.656Z,99.90
2018-12-31T17:27:39.382Z,99.90
2018-12-31T17:30:09.311Z,99.90
2018-12-31T17:32:39.024Z,99.90
2018-12-31T17:35:08.701Z,99.90
2018-12-31T17:37:38.389Z,99.90
2018-12-31T17:40:08.173Z,99.90
2018-12-31T17:42:37.857Z,99.90
2018-12-31T17:45:07.694Z,99.90
2018-12-31T17:47:37.347Z,99.90
2018-12-31T17:50:07.758Z,99.90
2018-12-31T17:52:37.413Z,99.90
2018-12-31T17:55:07.154Z,99.90
2018-12-31T17:57:36.867Z,99.90
2018-12-31T18:00:08.409Z,99.90
2018-12-31T18:02:38.098Z,99.90
2018-12-31T18:05:07.899Z,99.90
2018-12-31T18:07:37.709Z,99.90
2018-12-31T18:10:08.992Z,99.90
2018-12-31T18:12:39.477Z,99.90
2018-12-31T18:15:09.173Z,99.90
2018-12-31T18:17:38.974Z,99.90
2018-12-31T18:20:09.769Z,99.90
2018-12-31T18:22:39.505Z,99.90
2018-12-31T18:25:09.285Z,99.90
2018-12-31T18:27:39.078Z,99.90
2018-12-31T18:30:10.380Z,99.90
2018-12-31T18:32:40.106Z,99.90
2018-12-31T18:35:09.857Z,99.90
2018-12-31T18:37:41.847Z,99.90
2018-12-31T18:40:10.945Z,99.90
2018-12-31T18:42:40.686Z,99.90
2018-12-31T18:45:10.413Z,99.90
2018-12-31T18:47:40.320Z,99.90
2018-12-31T18:50:10.042Z,99.90
2018-12-31T18:52:39.725Z,99.90
2018-12-31T18:55:09.521Z,99.90
2018-12-31T18:57:39.209Z,99.90
2018-12-31T19:00:09.446Z,99.90
2018-12-31T19:02:39.728Z,99.90
2018-12-31T19:05:11.177Z,99.90
2018-12-31T19:07:41.009Z,99.90
2018-12-31T19:10:10.785Z,99.90
2018-12-31T19:12:40.474Z,99.90
2018-12-31T19:15:10.193Z,99.90
2018-12-31T19:17:39.901Z,99.90
2018-12-31T19:20:09.673Z,99.90
2018-12-31T19:22:39.745Z,99.90
2018-12-31T19:25:11.221Z,99.90
2018-12-31T19:27:40.930Z,99.90
2018-12-31T19:30:10.711Z,99.90
2018-12-31T19:32:40.514Z,99.90
2018-12-31T19:35:10.824Z,99.90
2018-12-31T19:37:40.546Z,99.90
2018-12-31T19:40:10.206Z,99.90
2018-12-31T19:42:40.025Z,99.90
2018-12-31T19:45:09.709Z,99.90
2018-12-31T19:47:39.556Z,99.90
2018-12-31T19:50:09.292Z,99.90
2018-12-31T19:52:40.030Z,99.90
2018-12-31T19:55:09.702Z,99.90
2018-12-31T19:57:39.432Z,99.90
2018-12-31T20:00:09.266Z,99.90
2018-12-31T20:02:38.984Z,99.90
2018-12-31T20:05:08.832Z,99.90
2018-12-31T20:07:38.497Z,99.90
2018-12-31T20:10:08.196Z,99.90
2018-12-31T20:12:37.913Z,99.90
2018-12-31T20:15:07.840Z,99.90
2018-12-31T20:17:37.621Z,99.90
2018-12-31T20:20:07.441Z,99.90
2018-12-31T20:22:37.212Z,99.90
2018-12-31T20:25:07.070Z,99.90
2018-12-31T20:27:36.745Z,99.90
2018-12-31T20:30:06.609Z,99.90
2018-12-31T20:32:36.241Z,99.90
2018-12-31T20:35:05.969Z,99.90
2018-12-31T20:37:36.084Z,99.90
2018-12-31T20:40:06.194Z,99.90
2018-12-31T20:42:35.912Z,99.90
2018-12-31T20:45:05.793Z,99.90
2018-12-31T20:47:35.493Z,99.90
2018-12-31T20:50:06.217Z,99.90
2018-12-31T20:52:35.909Z,99.90
2018-12-31T20:55:05.650Z,99.90
2018-12-31T20:57:35.402Z,99.90
2018-12-31T21:00:05.779Z,99.90
2018-12-31T21:02:36.033Z,99.90
2018-12-31T21:05:06.389Z,99.90
2018-12-31T21:07:36.172Z,99.90
2018-12-31T21:10:07.894Z,99.90
2018-12-31T21:12:37.628Z,99.90
2018-12-31T21:15:07.286Z,99.90
2018-12-31T21:17:37.038Z,99.90
2018-12-31T21:20:07.702Z,99.90
2018-12-31T21:22:37.423Z,99.90
2018-12-31T21:25:07.542Z,99.90
2018-12-31T21:27:37.316Z,99.90
2018-12-31T21:30:09.507Z,99.90
2018-12-31T21:32:39.175Z,99.90
2018-12-31T21:35:09.152Z,99.90
2018-12-31T21:37:38.916Z,99.90
2018-12-31T21:40:10.365Z,99.90
2018-12-31T21:42:40.013Z,99.90
2018-12-31T21:45:09.807Z,99.90
2018-12-31T21:47:39.546Z,99.90
2018-12-31T21:50:09.765Z,99.90
2018-12-31T21:52:39.818Z,99.90
2018-12-31T21:55:09.452Z,99.90
2018-12-31T21:57:39.165Z,99.90
2018-12-31T22:00:09.398Z,99.90
2018-12-31T22:02:39.745Z,99.90
2018-12-31T22:05:09.524Z,99.90
2018-12-31T22:07:39.169Z,99.90
2018-12-31T22:10:09.037Z,99.90
2018-12-31T22:12:38.753Z,99.90
2018-12-31T22:15:10.242Z,99.90
2018-12-31T22:17:39.945Z,99.90
2018-12-31T22:20:10.859Z,99.90
2018-12-31T22:22:40.654Z,99.90
2018-12-31T22:25:10.356Z,99.90
2018-12-31T22:27:40.120Z,99.90
2018-12-31T22:30:10.656Z,99.90
2018-12-31T22:32:40.477Z,99.90
2018-12-31T22:35:10.329Z,99.90
2018-12-31T22:37:40.140Z,99.90
2018-12-31T22:40:09.863Z,99.90
2018-12-31T22:42:39.580Z,99.90
2018-12-31T22:45:09.399Z,99.90
2018-12-31T22:47:39.146Z,99.90
2018-12-31T22:50:10.692Z,99.90
2018-12-31T22:52:40.353Z,99.90
2018-12-31T22:55:10.082Z,99.90
2018-12-31T22:57:39.805Z,99.90
2018-12-31T23:00:11.564Z,99.90
2018-12-31T23:02:41.744Z,99.90
2018-12-31T23:05:13.118Z,99.90
2018-12-31T23:07:43.111Z,99.90
2018-12-31T23:10:12.936Z,99.90
2018-12-31T23:12:42.571Z,99.90
2018-12-31T23:15:16.106Z,99.90
2018-12-31T23:17:45.859Z,99.90
2018-12-31T23:20:15.763Z,99.90
2018-12-31T23:22:45.538Z,99.90
2018-12-31T23:25:15.401Z,99.90
2018-12-31T23:27:45.118Z,99.90
2018-12-31T23:30:14.877Z,99.90
2018-12-31T23:32:44.627Z,99.90
2018-12-31T23:35:14.689Z,99.90
2018-12-31T23:37:45.721Z,99.90
2018-12-31T23:40:15.435Z,99.90
2018-12-31T23:42:45.128Z,99.90
2018-12-31T23:45:14.816Z,99.90
2018-12-31T23:47:44.519Z,99.90
2018-12-31T23:50:14.217Z,99.90
2018-12-31T23:52:43.961Z,99.90
2018-12-31T23:55:13.677Z,99.90
2018-12-31T23:57:43.437Z,99.90
